Time;durP1;ratioP1;P1;durP2;ratioP2;P2;SDS_P1;SDS_P2;PMS_P1;PMS_P2;Temp;Humidity;BMP_temperature;BMP_pressure;BME280_temperature;BME280_humidity;BME280_pressure;Samples;Min_cycle;Max_cycle;Signal;HPM_P1;HPM_P2
2024/01/27 00:02:04;;;;;;;1003.83;730.97;;;27.10;99.90;;;;;;4995386;28;20038;-67
2024/01/27 00:04:30;;;;;;;1039.15;765.63;;;27.20;99.90;;;;;;4995613;28;20023;-67
2024/01/27 00:06:57;;;;;;;934.25;713.35;;;27.20;99.90;;;;;;4995528;28;20430;-67
2024/01/27 00:09:23;;;;;;;1035.10;773.53;;;27.20;99.90;;;;;;4995466;28;20380;-67
2024/01/27 01:12:15;;;;;;;638.08;569.65;;;27.20;99.90;;;;;;5084078;28;20399;-66
2024/01/27 01:14:41;;;;;;;1163.85;869.60;;;27.20;99.90;;;;;;5071954;28;20036;-67
2024/01/27 01:17:08;;;;;;;1014.90;810.88;;;27.40;99.90;;;;;;5070825;28;20090;-66
2024/01/27 01:19:36;;;;;;;966.65;790.55;;;27.50;99.90;;;;;;5070735;28;20422;-66
2024/01/27 01:22:03;;;;;;;931.30;783.28;;;27.60;99.90;;;;;;5083631;28;20028;-66
2024/01/27 01:24:30;;;;;;;738.92;654.38;;;27.70;99.90;;;;;;5090980;28;20025;-66
2024/01/27 01:26:56;;;;;;;595.60;535.17;;;27.70;99.90;;;;;;5090967;28;20024;-66
2024/01/27 01:29:23;;;;;;;655.53;588.97;;;27.80;99.90;;;;;;5090756;28;20089;-66
2024/01/27 01:31:50;;;;;;;639.78;574.00;;;27.90;99.90;;;;;;5088614;28;20027;-66
2024/01/27 01:36:48;;;;;;;619.95;558.63;;;28.10;99.90;;;;;;5089587;28;20071;-66
2024/01/27 01:39:14;;;;;;;581.42;525.92;;;28.20;99.90;;;;;;5090548;28;20032;-66
2024/01/27 01:41:42;;;;;;;469.00;424.25;;;28.20;99.90;;;;;;5090950;28;20019;-67
2024/01/27 01:44:08;;;;;;;433.20;392.98;;;28.20;99.90;;;;;;5090311;28;20535;-66
2024/01/27 01:46:35;;;;;;;468.35;423.42;;;28.30;99.90;;;;;;5090481;28;20024;-67
2024/01/27 01:49:01;;;;;;;420.20;381.05;;;28.30;99.90;;;;;;5090445;28;20506;-67
2024/01/27 01:51:28;;;;;;;428.40;387.90;;;28.20;99.90;;;;;;5090301;28;20036;-66
2024/01/27 01:53:58;;;;;;;344.75;313.08;;;28.20;99.90;;;;;;5090484;28;20024;-66
2024/01/27 01:56:26;;;;;;;450.98;408.38;;;28.30;99.90;;;;;;5090116;28;20388;-66
2024/01/27 01:58:56;;;;;;;416.20;377.40;;;28.30;99.90;;;;;;5088073;28;20031;-67
2024/01/27 02:01:22;;;;;;;352.55;320.27;;;28.30;99.90;;;;;;5080751;28;20028;-66
2024/01/27 02:03:58;;;;;;;356.77;324.70;;;28.30;99.90;;;;;;5078877;28;20082;-67
2024/01/27 02:06:25;;;;;;;324.38;293.98;;;28.30;99.90;;;;;;5078409;28;20436;-67
2024/01/27 02:08:51;;;;;;;427.50;387.83;;;28.40;99.90;;;;;;5079899;28;20048;-67
2024/01/27 02:11:18;;;;;;;385.08;348.25;;;28.50;99.90;;;;;;5079868;28;20013;-66
2024/01/27 02:13:45;;;;;;;238.57;218.05;;;28.50;99.90;;;;;;5078442;28;20040;-66
2024/01/27 02:16:11;;;;;;;301.67;274.25;;;28.40;99.90;;;;;;5078637;28;20385;-66
2024/01/27 02:18:38;;;;;;;259.40;237.45;;;28.40;99.90;;;;;;5077653;28;20031;-67
2024/01/27 02:21:04;;;;;;;380.95;345.80;;;28.40;99.90;;;;;;5080633;28;20031;-67
2024/01/27 02:23:31;;;;;;;369.42;335.30;;;28.40;99.90;;;;;;5064815;28;20380;-67
2024/01/27 02:25:57;;;;;;;474.73;428.15;;;28.50;99.90;;;;;;5065947;28;20024;-68
2024/01/27 02:28:25;;;;;;;475.83;429.05;;;28.50;99.90;;;;;;5066721;28;20024;-67
2024/01/27 02:30:51;;;;;;;439.73;396.98;;;28.50;99.90;;;;;;5064784;28;20021;-66
2024/01/27 02:33:18;;;;;;;395.77;357.30;;;28.50;99.90;;;;;;5050559;28;20017;-70
2024/01/27 02:35:44;;;;;;;484.88;438.58;;;28.30;99.90;;;;;;5045314;28;20474;-65
2024/01/27 02:38:10;;;;;;;405.33;367.90;;;28.20;99.90;;;;;;5044992;28;20021;-66
2024/01/27 02:40:37;;;;;;;380.10;345.05;;;28.10;99.90;;;;;;5046641;28;20103;-66
2024/01/27 02:43:04;;;;;;;370.00;335.40;;;28.10;99.90;;;;;;5045304;28;20072;-67
2024/01/27 02:45:30;;;;;;;418.40;379.42;;;28.10;99.90;;;;;;5044380;28;20025;-67
2024/01/27 02:47:57;;;;;;;439.23;398.40;;;28.20;99.90;;;;;;5055194;28;20021;-66
2024/01/27 02:50:23;;;;;;;513.38;463.58;;;28.30;99.90;;;;;;5048322;28;20064;-66
2024/01/27 02:52:50;;;;;;;465.52;421.45;;;28.40;99.90;;;;;;5045970;28;20030;-67
2024/01/27 02:55:16;;;;;;;477.02;430.42;;;28.50;99.90;;;;;;5044238;28;20462;-67
2024/01/27 02:57:43;;;;;;;485.80;438.38;;;28.60;99.90;;;;;;5045738;28;20020;-66
2024/01/27 03:00:10;;;;;;;453.00;410.25;;;28.60;99.90;;;;;;5045936;28;20049;-68
2024/01/27 03:02:36;;;;;;;240.48;221.07;;;28.70;99.90;;;;;;5044152;28;20017;-66
2024/01/27 03:05:03;;;;;;;195.30;180.63;;;28.80;99.90;;;;;;5045364;28;20110;-67
2024/01/27 03:07:30;;;;;;;110.20;103.05;;;28.90;99.90;;;;;;5045762;28;20037;-67
2024/01/27 03:09:56;;;;;;;103.13;96.28;;;28.90;99.90;;;;;;5044351;28;20534;-66
2024/01/27 03:12:23;;;;;;;89.25;83.40;;;29.00;99.90;;;;;;5045244;28;20075;-65
2024/01/27 03:14:50;;;;;;;120.47;111.22;;;28.90;99.90;;;;;;5045577;28;20099;-66
2024/01/27 03:17:17;;;;;;;134.55;123.03;;;29.00;99.90;;;;;;5043899;28;20363;-66
2024/01/27 03:19:43;;;;;;;157.57;142.07;;;29.00;99.90;;;;;;5045350;28;20405;-67
2024/01/27 03:22:10;;;;;;;133.20;121.93;;;29.10;99.90;;;;;;5046892;28;20018;-66
2024/01/27 03:24:37;;;;;;;114.95;106.70;;;29.20;99.90;;;;;;5044777;28;20044;-66
2024/01/27 03:27:04;;;;;;;110.28;102.22;;;29.20;99.90;;;;;;5046030;28;20029;-67
2024/01/27 03:29:30;;;;;;;102.63;95.15;;;29.20;99.90;;;;;;5046505;28;20128;-68
2024/01/27 03:31:57;;;;;;;147.38;135.35;;;29.20;99.90;;;;;;5044399;28;20021;-67
2024/01/27 03:34:24;;;;;;;104.90;97.03;;;29.20;99.90;;;;;;5044771;28;20013;-67
2024/01/27 03:36:51;;;;;;;104.32;96.75;;;29.20;99.90;;;;;;5046241;28;20470;-67
2024/01/27 03:39:17;;;;;;;105.47;97.40;;;29.10;99.90;;;;;;5044348;28;20029;-67
2024/01/27 03:41:44;;;;;;;107.90;99.55;;;29.10;99.90;;;;;;5045596;28;20484;-66
2024/01/27 03:44:10;;;;;;;107.60;99.72;;;29.20;99.90;;;;;;5046038;28;20025;-67
2024/01/27 03:46:39;;;;;;;117.13;109.20;;;29.20;99.90;;;;;;5044569;28;20033;-67
2024/01/27 03:49:06;;;;;;;115.05;107.22;;;29.20;99.90;;;;;;5045144;28;20397;-67
2024/01/27 03:51:32;;;;;;;111.75;104.20;;;29.30;99.90;;;;;;5046368;28;20025;-67
2024/01/27 03:53:59;;;;;;;155.07;142.38;;;29.30;99.90;;;;;;5044750;28;20017;-66
2024/01/27 03:56:25;;;;;;;141.05;131.15;;;29.30;99.90;;;;;;5080240;23;20045;-65
2024/01/27 03:58:51;;;;;;;131.23;122.75;;;29.20;99.90;;;;;;5067446;28;20035;-67
2024/01/27 04:01:18;;;;;;;121.85;114.07;;;29.20;99.90;;;;;;5068279;28;20111;-67
2024/01/27 04:03:44;;;;;;;122.28;114.40;;;29.10;99.90;;;;;;5067710;28;20036;-66
2024/01/27 04:06:11;;;;;;;121.50;113.68;;;29.10;99.90;;;;;;5067847;28;20027;-67
2024/01/27 04:08:37;;;;;;;125.65;117.05;;;29.00;99.90;;;;;;5067536;28;20100;-66
2024/01/27 04:11:04;;;;;;;123.82;115.45;;;29.10;99.90;;;;;;5068343;28;20016;-67
2024/01/27 04:13:30;;;;;;;122.60;114.65;;;29.10;99.90;;;;;;5069087;28;20067;-66
2024/01/27 04:15:59;;;;;;;126.10;117.75;;;29.00;99.90;;;;;;5062907;28;20024;-65
2024/01/27 04:18:25;;;;;;;132.27;123.57;;;29.00;99.90;;;;;;5064275;28;20044;-67
2024/01/27 04:20:52;;;;;;;126.57;118.40;;;29.00;99.90;;;;;;5064628;28;20032;-67
2024/01/27 04:23:18;;;;;;;135.45;126.05;;;28.90;99.90;;;;;;5062791;28;20025;-66
2024/01/27 04:25:45;;;;;;;130.63;121.53;;;28.90;99.90;;;;;;5063924;28;20016;-66
2024/01/27 04:28:12;;;;;;;131.75;122.68;;;28.80;99.90;;;;;;5064228;28;20033;-66
2024/01/27 04:30:39;;;;;;;123.00;114.80;;;28.90;99.90;;;;;;5062429;28;20059;-66
2024/01/27 04:33:07;;;;;;;123.30;115.55;;;28.90;99.90;;;;;;5063347;28;20108;-65
2024/01/27 04:35:34;;;;;;;113.72;106.28;;;28.90;99.90;;;;;;5064419;28;20028;-65
2024/01/27 04:38:01;;;;;;;138.90;129.90;;;29.00;99.90;;;;;;5062700;28;20024;-66
2024/01/27 04:40:27;;;;;;;118.80;110.95;;;29.00;99.90;;;;;;5063249;28;20067;-66
2024/01/27 04:42:54;;;;;;;127.30;119.07;;;29.00;99.90;;;;;;5064218;28;20111;-66
2024/01/27 04:45:20;;;;;;;135.20;126.20;;;29.00;99.90;;;;;;5062296;28;20082;-66
2024/01/27 04:47:47;;;;;;;117.82;109.85;;;29.00;99.90;;;;;;5060439;28;20055;-70
2024/01/27 04:50:14;;;;;;;129.85;121.50;;;28.90;99.90;;;;;;5090255;22;20056;-66
2024/01/27 04:52:41;;;;;;;122.93;114.55;;;29.00;99.90;;;;;;5044146;28;20021;-66
2024/01/27 04:55:08;;;;;;;122.57;114.50;;;29.00;99.90;;;;;;5043276;28;20037;-66
2024/01/27 04:57:34;;;;;;;111.57;104.55;;;29.10;99.90;;;;;;5041949;28;20078;-66
2024/01/27 05:00:01;;;;;;;127.70;119.40;;;29.20;99.90;;;;;;5051940;28;20041;-67
2024/01/27 05:02:27;;;;;;;121.78;113.47;;;29.40;99.90;;;;;;5044954;28;20025;-66
2024/01/27 05:04:53;;;;;;;123.65;115.53;;;29.50;99.90;;;;;;5044872;28;20282;-67
2024/01/27 05:07:21;;;;;;;125.80;117.50;;;29.60;99.90;;;;;;5033729;28;20450;-66
2024/01/27 05:09:47;;;;;;;115.80;108.57;;;29.70;99.90;;;;;;5045765;28;20470;-66
2024/01/27 05:12:14;;;;;;;137.93;129.15;;;29.80;99.90;;;;;;5052235;28;20039;-66
2024/01/27 05:14:47;;;;;;;126.65;118.40;;;29.90;99.90;;;;;;5049023;28;20459;-68
2024/01/27 05:17:13;;;;;;;123.40;115.32;;;30.00;99.90;;;;;;5033380;28;20040;-66
2024/01/27 05:19:40;;;;;;;136.65;127.80;;;30.00;99.90;;;;;;5038691;28;20022;-66
2024/01/27 05:22:06;;;;;;;132.18;123.47;;;30.10;99.90;;;;;;5042831;28;20036;-66
2024/01/27 05:24:33;;;;;;;132.98;124.30;;;30.00;99.90;;;;;;5052344;28;20358;-67
2024/01/27 05:27:00;;;;;;;119.00;110.72;;;30.00;99.90;;;;;;5033321;28;20095;-68
2024/01/27 05:29:29;;;;;;;116.13;108.43;;;29.90;99.90;;;;;;5033611;28;20017;-66
2024/01/27 05:31:56;;;;;;;118.63;110.60;;;29.90;99.90;;;;;;5033472;28;20029;-65
2024/01/27 05:34:22;;;;;;;124.65;116.32;;;29.80;99.90;;;;;;5033573;28;20014;-66
2024/01/27 05:36:49;;;;;;;126.55;118.35;;;29.90;99.90;;;;;;5034495;28;20095;-66
2024/01/27 05:39:15;;;;;;;126.35;117.70;;;30.00;99.90;;;;;;5045643;28;20020;-65
2024/01/27 05:41:42;;;;;;;126.45;118.10;;;30.10;99.90;;;;;;5042762;28;20024;-66
2024/01/27 05:44:08;;;;;;;118.82;110.72;;;30.20;99.90;;;;;;5041727;28;20507;-65
2024/01/27 05:46:35;;;;;;;129.45;120.43;;;30.30;99.90;;;;;;5042334;28;20029;-66
2024/01/27 05:49:02;;;;;;;120.28;112.10;;;30.30;99.90;;;;;;5043503;28;20075;-67
2024/01/27 05:51:30;;;;;;;131.88;122.55;;;30.40;99.90;;;;;;5042876;28;20045;-68
2024/01/27 05:53:57;;;;;;;128.70;119.68;;;30.30;99.90;;;;;;5043231;28;20071;-68
2024/01/27 05:56:23;;;;;;;145.73;136.15;;;30.40;99.90;;;;;;5036603;28;20028;-65
2024/01/27 05:58:50;;;;;;;150.23;140.15;;;30.40;99.90;;;;;;5037563;28;20059;-66
2024/01/27 06:01:20;;;;;;;173.52;161.93;;;30.40;99.90;;;;;;5037989;28;20026;-65
2024/01/27 06:03:46;;;;;;;173.05;161.07;;;30.40;99.90;;;;;;5038247;28;20025;-65
2024/01/27 06:06:13;;;;;;;163.40;152.70;;;30.40;99.90;;;;;;5038031;28;20029;-67
2024/01/27 06:08:41;;;;;;;160.55;149.82;;;30.40;99.90;;;;;;5038320;28;20295;-66
2024/01/27 06:11:07;;;;;;;169.77;158.07;;;30.30;99.90;;;;;;5037930;28;20056;-65
2024/01/27 06:13:34;;;;;;;181.18;169.18;;;30.40;99.90;;;;;;5037805;28;20489;-65
2024/01/27 06:16:01;;;;;;;170.35;159.20;;;30.40;99.90;;;;;;5037624;28;20026;-65
2024/01/27 06:18:27;;;;;;;166.10;154.80;;;30.30;99.90;;;;;;5037419;28;20028;-66
2024/01/27 06:20:53;;;;;;;168.55;157.35;;;30.30;99.90;;;;;;5037536;28;20025;-66
2024/01/27 06:23:20;;;;;;;164.95;153.02;;;30.30;99.90;;;;;;5037731;28;20104;-65
2024/01/27 06:25:46;;;;;;;152.23;141.23;;;30.30;99.90;;;;;;5037248;28;20097;-66
2024/01/27 06:28:13;;;;;;;147.55;137.55;;;30.30;99.90;;;;;;5039610;28;20033;-69
2024/01/27 06:30:39;;;;;;;152.75;142.10;;;30.40;99.90;;;;;;5046990;28;20029;-68
2024/01/27 06:33:06;;;;;;;173.23;161.38;;;30.40;99.90;;;;;;5040624;28;20487;-67
2024/01/27 06:35:32;;;;;;;146.45;135.50;;;30.40;99.90;;;;;;5046321;28;20063;-70
2024/01/27 06:37:59;;;;;;;149.90;138.90;;;30.30;99.90;;;;;;5047520;28;20018;-70
2024/01/27 06:40:25;;;;;;;159.65;148.05;;;30.40;99.90;;;;;;5048110;28;20053;-69
2024/01/27 06:42:52;;;;;;;175.90;163.35;;;30.30;99.90;;;;;;5047451;28;20035;-70
2024/01/27 06:45:18;;;;;;;154.30;143.63;;;30.10;99.90;;;;;;5049606;28;20573;-67
2024/01/27 06:47:45;;;;;;;142.02;132.05;;;30.00;99.90;;;;;;5050164;28;20197;-67
2024/01/27 06:50:13;;;;;;;168.23;156.00;;;29.80;99.90;;;;;;5047986;28;20081;-68
2024/01/27 06:52:40;;;;;;;224.45;208.52;;;29.60;99.90;;;;;;5050155;28;20036;-68
2024/01/27 06:55:07;;;;;;;192.50;178.57;;;29.40;99.90;;;;;;5049521;28;20048;-68
2024/01/27 06:57:33;;;;;;;398.95;365.92;;;29.20;99.90;;;;;;5045948;28;20049;-69
2024/01/27 07:00:00;;;;;;;520.95;474.02;;;29.00;99.90;;;;;;5045514;28;20027;-68
2024/01/27 07:02:28;;;;;;;485.40;440.58;;;28.90;99.90;;;;;;5040581;28;20270;-67
2024/01/27 07:04:55;;;;;;;545.80;492.70;;;28.90;99.90;;;;;;5040576;28;20421;-68
2024/01/27 07:07:27;;;;;;;559.03;505.92;;;28.90;99.90;;;;;;5045394;28;20096;-71
2024/01/27 07:09:55;;;;;;;497.20;452.05;;;29.00;99.90;;;;;;5046816;28;20032;-73
2024/01/27 07:12:22;;;;;;;458.13;418.80;;;29.00;99.90;;;;;;5055085;28;20036;-71
2024/01/27 07:14:49;;;;;;;437.92;400.52;;;28.90;99.90;;;;;;5047259;28;20067;-69
2024/01/27 07:17:15;;;;;;;476.55;434.98;;;29.00;99.90;;;;;;5046031;28;20554;-68
2024/01/27 07:19:42;;;;;;;399.10;365.95;;;29.10;99.90;;;;;;5046801;28;20025;-68
2024/01/27 07:22:09;;;;;;;461.83;422.48;;;29.20;99.90;;;;;;5046219;28;20022;-68
2024/01/27 07:24:35;;;;;;;490.48;445.33;;;29.30;99.90;;;;;;5046964;28;20053;-67
2024/01/27 07:27:03;;;;;;;532.63;483.15;;;29.40;99.90;;;;;;5044118;28;20021;-67
2024/01/27 07:29:30;;;;;;;521.00;472.10;;;29.60;99.90;;;;;;5043708;28;20437;-68
2024/01/27 07:31:57;;;;;;;534.60;483.08;;;29.70;99.90;;;;;;5045873;28;20033;-66
2024/01/27 07:34:23;;;;;;;525.53;476.60;;;29.80;99.90;;;;;;5043017;28;20169;-68
2024/01/27 07:36:50;;;;;;;535.60;486.13;;;30.00;99.90;;;;;;5049294;28;20028;-68
2024/01/27 07:39:16;;;;;;;222.93;206.70;;;30.10;99.90;;;;;;5054346;28;20021;-69
2024/01/27 07:41:43;;;;;;;186.27;173.48;;;30.20;99.90;;;;;;5054511;28;20095;-68
2024/01/27 07:44:10;;;;;;;136.95;127.00;;;30.20;99.90;;;;;;5054802;28;20021;-68
2024/01/27 07:46:38;;;;;;;179.43;166.27;;;30.10;99.90;;;;;;5046603;28;20021;-68
2024/01/27 07:49:07;;;;;;;163.00;151.52;;;30.00;99.90;;;;;;5049266;28;20040;-67
2024/01/27 07:51:34;;;;;;;156.32;145.50;;;29.70;99.90;;;;;;5054508;28;20090;-64
2024/01/27 07:54:01;;;;;;;169.65;157.68;;;29.30;99.90;;;;;;5051845;28;20485;-68
2024/01/27 07:56:28;;;;;;;160.38;149.10;;;28.90;99.90;;;;;;5047286;28;20029;-64
2024/01/27 07:58:54;;;;;;;146.07;135.68;;;28.70;99.90;;;;;;5036196;28;20120;-67
2024/01/27 08:01:21;;;;;;;147.93;137.32;;;28.60;99.90;;;;;;5047935;28;20106;-67
2024/01/27 08:03:47;;;;;;;158.32;147.57;;;28.50;99.90;;;;;;5038678;28;20496;-67
2024/01/27 08:06:19;;;;;;;164.63;153.35;;;28.50;99.90;;;;;;5034152;28;20038;-67
2024/01/27 08:08:47;;;;;;;168.55;157.15;;;28.40;99.90;;;;;;5034160;28;20474;-68
2024/01/27 08:11:15;;;;;;;175.98;163.77;;;28.40;99.90;;;;;;5033937;28;20120;-66
2024/01/27 08:13:42;;;;;;;158.45;147.52;;;28.40;99.90;;;;;;5034099;28;20025;-66
2024/01/27 08:16:09;;;;;;;169.02;157.73;;;28.50;99.90;;;;;;5034296;28;20072;-67
2024/01/27 08:18:36;;;;;;;169.93;158.63;;;28.50;99.90;;;;;;5033922;28;20026;-66
2024/01/27 08:21:04;;;;;;;171.60;160.20;;;28.60;99.90;;;;;;5033590;28;20037;-66
2024/01/27 08:23:30;;;;;;;174.45;162.50;;;28.60;99.90;;;;;;5033991;28;20432;-67
2024/01/27 08:25:57;;;;;;;194.93;181.82;;;28.60;99.90;;;;;;5033845;28;20029;-66
2024/01/27 08:28:24;;;;;;;188.48;175.18;;;28.70;99.90;;;;;;5033982;28;20041;-67
2024/01/27 08:30:50;;;;;;;203.05;189.18;;;28.80;99.90;;;;;;5033839;28;20025;-67
2024/01/27 08:33:17;;;;;;;215.40;200.40;;;28.80;99.90;;;;;;5033912;28;20022;-66
2024/01/27 08:35:43;;;;;;;240.52;222.93;;;28.90;99.90;;;;;;5036651;28;20087;-67
2024/01/27 08:38:10;;;;;;;198.85;185.35;;;28.90;99.90;;;;;;5053583;28;20078;-67
2024/01/27 08:40:36;;;;;;;235.75;219.98;;;28.90;99.90;;;;;;5040762;28;20390;-67
2024/01/27 08:43:03;;;;;;;198.30;184.40;;;28.90;99.90;;;;;;5033461;28;20030;-67
2024/01/27 08:45:30;;;;;;;260.50;240.23;;;29.00;99.90;;;;;;5033629;28;20033;-67
2024/01/27 08:47:56;;;;;;;224.77;208.40;;;29.00;99.90;;;;;;5033492;28;20108;-67
2024/01/27 08:50:23;;;;;;;242.90;224.13;;;29.10;99.90;;;;;;5033237;28;20398;-67
2024/01/27 08:52:49;;;;;;;243.77;225.55;;;29.10;99.90;;;;;;5038888;28;20029;-66
2024/01/27 08:55:19;;;;;;;226.05;208.38;;;29.10;99.90;;;;;;5042745;28;20044;-67
2024/01/27 08:57:47;;;;;;;233.50;215.63;;;29.10;99.90;;;;;;5042621;28;20021;-67
2024/01/27 09:00:15;;;;;;;199.90;184.52;;;29.10;99.90;;;;;;5044408;28;20044;-67
2024/01/27 09:02:41;;;;;;;284.77;260.95;;;29.10;99.90;;;;;;5041741;28;20025;-67
2024/01/27 09:05:08;;;;;;;283.90;261.15;;;29.00;99.90;;;;;;5044106;28;20030;-67
2024/01/27 09:07:35;;;;;;;301.98;276.05;;;29.10;99.90;;;;;;5046150;28;20017;-67
2024/01/27 09:10:02;;;;;;;330.30;301.63;;;29.10;99.90;;;;;;5044727;28;20048;-66
2024/01/27 09:12:28;;;;;;;261.50;241.23;;;29.10;99.90;;;;;;5045230;28;20017;-67
2024/01/27 09:14:55;;;;;;;251.02;232.10;;;29.10;99.90;;;;;;5043780;28;20053;-68
2024/01/27 09:17:22;;;;;;;299.77;275.25;;;29.10;99.90;;;;;;5044723;28;20480;-67
2024/01/27 09:19:48;;;;;;;288.13;264.98;;;29.10;99.90;;;;;;5042662;28;20024;-66
2024/01/27 09:22:15;;;;;;;233.07;214.90;;;29.10;99.90;;;;;;5041522;28;20026;-67
2024/01/27 09:24:41;;;;;;;153.68;142.45;;;29.10;99.90;;;;;;5041155;28;20470;-66
2024/01/27 09:27:08;;;;;;;157.60;146.32;;;29.10;99.90;;;;;;5041945;28;20035;-66
2024/01/27 09:29:34;;;;;;;196.45;181.70;;;29.10;99.90;;;;;;5041180;28;20080;-67
2024/01/27 09:32:01;;;;;;;185.50;171.98;;;29.10;99.90;;;;;;5041522;28;20032;-67
2024/01/27 09:34:27;;;;;;;151.10;139.98;;;29.20;99.90;;;;;;5046372;28;20358;-67
2024/01/27 09:36:54;;;;;;;159.85;148.15;;;29.10;99.90;;;;;;5044909;28;20030;-67
2024/01/27 09:39:20;;;;;;;221.32;204.15;;;29.10;99.90;;;;;;5045030;28;20025;-70
2024/01/27 09:41:48;;;;;;;258.17;236.25;;;29.10;99.90;;;;;;5046174;28;20025;-66
2024/01/27 09:44:18;;;;;;;289.88;264.63;;;29.10;99.90;;;;;;5045086;28;20480;-67
2024/01/27 09:46:47;;;;;;;265.15;243.35;;;29.10;99.90;;;;;;5044371;28;20073;-70
2024/01/27 09:49:15;;;;;;;218.27;200.57;;;29.10;99.90;;;;;;5045631;28;20037;-67
2024/01/27 09:51:42;;;;;;;323.27;294.70;;;29.10;99.90;;;;;;5045287;28;20103;-67
2024/01/27 09:54:09;;;;;;;314.65;287.77;;;29.20;99.90;;;;;;5044077;28;20501;-67
2024/01/27 09:56:36;;;;;;;332.38;302.85;;;29.20;99.90;;;;;;5045148;28;20032;-73
2024/01/27 09:59:03;;;;;;;303.75;276.75;;;29.20;99.90;;;;;;5045787;28;20067;-66
2024/01/27 10:01:30;;;;;;;358.88;326.20;;;29.20;99.90;;;;;;5044349;28;20478;-70
2024/01/27 10:03:58;;;;;;;326.65;298.38;;;29.20;99.90;;;;;;5047135;28;20108;-67
2024/01/27 10:06:25;;;;;;;259.52;238.23;;;29.20;99.90;;;;;;5046198;28;20139;-69
2024/01/27 10:08:55;;;;;;;362.85;330.55;;;29.20;99.90;;;;;;5037998;28;20026;-68
2024/01/27 10:11:23;;;;;;;355.08;323.30;;;29.20;99.90;;;;;;5034688;28;20524;-68
2024/01/27 10:14:02;;;;;;;309.83;283.42;;;29.20;99.90;;;;;;5035394;28;20378;-66
2024/01/27 10:16:29;;;;;;;387.52;351.88;;;29.30;99.90;;;;;;5035004;28;20513;-66
2024/01/27 10:19:04;;;;;;;290.90;266.25;;;29.30;99.90;;;;;;5051920;28;20036;-65
2024/01/27 10:21:31;;;;;;;289.27;264.83;;;29.30;99.90;;;;;;5054959;28;20396;-65
2024/01/27 10:23:57;;;;;;;348.90;318.95;;;29.30;99.90;;;;;;5054913;28;20036;-65
2024/01/27 10:26:24;;;;;;;330.67;301.73;;;29.30;99.90;;;;;;5054882;28;20069;-66
2024/01/27 10:28:54;;;;;;;420.48;381.38;;;29.30;99.90;;;;;;5054923;28;20029;-64
2024/01/27 10:31:26;;;;;;;411.60;373.52;;;29.30;99.90;;;;;;5054838;28;20094;-66
2024/01/27 10:33:53;;;;;;;298.17;273.37;;;29.30;99.90;;;;;;5055295;28;20048;-66
2024/01/27 10:36:20;;;;;;;194.70;179.07;;;29.30;99.90;;;;;;5054809;28;20032;-66
2024/01/27 10:38:46;;;;;;;214.38;196.68;;;29.20;99.90;;;;;;5054432;28;20389;-67
2024/01/27 10:41:26;;;;;;;222.25;203.98;;;29.30;99.90;;;;;;5054783;28;20021;-67
2024/01/27 10:43:53;;;;;;;141.07;128.00;;;29.30;99.90;;;;;;5054145;28;20036;-67
2024/01/27 10:46:21;;;;;;;231.68;212.38;;;29.30;99.90;;;;;;5054564;28;20025;-66
2024/01/27 10:48:52;;;;;;;116.63;106.22;;;29.20;99.90;;;;;;5054476;28;20037;-67
2024/01/27 10:51:33;;;;;;;124.32;113.13;;;29.20;99.90;;;;;;5035634;28;20045;-67
2024/01/27 10:54:03;;;;;;;162.85;149.90;;;29.20;99.90;;;;;;5034573;28;20482;-67
2024/01/27 10:56:33;;;;;;;97.30;88.65;;;29.20;99.90;;;;;;5034586;28;20091;-66
2024/01/27 10:59:02;;;;;;;155.15;141.52;;;29.20;99.90;;;;;;5034481;28;20079;-66
2024/01/27 11:01:31;;;;;;;146.93;134.48;;;29.20;99.90;;;;;;5034367;28;20086;-67
2024/01/27 11:04:00;;;;;;;96.72;87.53;;;29.20;99.90;;;;;;5034372;28;20033;-67
2024/01/27 11:06:29;;;;;;;97.03;87.07;;;29.20;99.90;;;;;;5034512;28;20034;-66
2024/01/27 11:08:56;;;;;;;194.30;177.80;;;29.20;99.90;;;;;;5034325;28;20477;-67
2024/01/27 11:11:22;;;;;;;177.30;163.07;;;29.20;99.90;;;;;;5034067;28;20033;-67
2024/01/27 11:13:50;;;;;;;196.13;179.45;;;29.20;99.90;;;;;;5034544;28;20021;-67
2024/01/27 11:16:18;;;;;;;179.68;164.82;;;29.10;99.90;;;;;;5034124;28;20026;-67
2024/01/27 11:18:45;;;;;;;168.68;154.25;;;29.10;99.90;;;;;;5042262;28;20036;-66
2024/01/27 11:21:16;;;;;;;106.13;96.60;;;29.10;99.90;;;;;;5053685;28;20382;-67
2024/01/27 11:23:44;;;;;;;112.93;103.32;;;29.10;99.90;;;;;;5054226;28;20082;-66
2024/01/27 11:26:14;;;;;;;184.65;168.95;;;29.10;99.90;;;;;;5053703;28;20037;-66
2024/01/27 11:28:41;;;;;;;98.47;89.05;;;29.00;99.90;;;;;;5053873;28;20088;-67
2024/01/27 11:31:08;;;;;;;98.97;88.65;;;29.00;99.90;;;;;;5053603;28;20040;-68
2024/01/27 11:33:44;;;;;;;115.72;105.97;;;29.00;99.90;;;;;;5053460;28;20029;-67
2024/01/27 11:36:21;;;;;;;108.60;99.80;;;29.00;99.90;;;;;;5053576;28;20040;-67
2024/01/27 11:38:47;;;;;;;95.97;87.60;;;29.00;99.90;;;;;;5053428;28;20032;-67
2024/01/27 11:41:23;;;;;;;76.50;69.20;;;28.90;99.90;;;;;;5053760;28;20021;-69
2024/01/27 11:43:53;;;;;;;97.40;88.80;;;28.90;99.90;;;;;;5053400;28;20485;-69
2024/01/27 11:46:20;;;;;;;84.63;77.45;;;28.90;99.90;;;;;;5053719;28;20040;-69
2024/01/27 11:48:47;;;;;;;110.55;100.47;;;28.90;99.90;;;;;;5053536;28;20043;-70
2024/01/27 11:51:13;;;;;;;106.60;96.65;;;28.90;99.90;;;;;;5053255;28;20045;-69
2024/01/27 11:53:41;;;;;;;102.35;93.22;;;28.90;99.90;;;;;;5053576;28;20017;-70
2024/01/27 11:56:07;;;;;;;97.47;89.05;;;28.90;99.90;;;;;;5052990;28;20029;-70
2024/01/27 11:58:34;;;;;;;77.28;70.53;;;28.80;99.90;;;;;;5053518;28;20036;-70
2024/01/27 12:01:01;;;;;;;96.43;88.18;;;28.90;99.90;;;;;;5053150;28;20032;-70
2024/01/27 12:03:29;;;;;;;89.95;81.65;;;28.90;99.90;;;;;;5052673;28;20032;-70
2024/01/27 12:05:55;;;;;;;79.60;71.70;;;28.90;99.90;;;;;;5053019;28;20154;-70
2024/01/27 12:08:22;;;;;;;89.07;81.32;;;28.80;99.90;;;;;;5054228;28;20551;-70
2024/01/27 12:10:49;;;;;;;91.18;82.53;;;28.80;99.90;;;;;;5054448;28;20029;-70
2024/01/27 12:13:16;;;;;;;113.85;104.13;;;28.80;99.90;;;;;;5053952;28;20024;-66
2024/01/27 12:15:43;;;;;;;103.40;94.30;;;28.80;99.90;;;;;;5054111;28;20024;-67
2024/01/27 12:18:10;;;;;;;121.93;111.78;;;28.80;99.90;;;;;;5054082;28;20063;-66
2024/01/27 12:20:37;;;;;;;128.90;118.40;;;28.80;99.90;;;;;;5053860;28;20104;-66
2024/01/27 12:23:04;;;;;;;195.15;178.38;;;28.80;99.90;;;;;;5053863;28;20021;-66
2024/01/27 12:25:30;;;;;;;220.15;202.68;;;28.80;99.90;;;;;;5053927;28;20025;-66
2024/01/27 12:28:00;;;;;;;167.32;154.07;;;28.80;99.90;;;;;;5054055;28;20382;-66
2024/01/27 12:30:27;;;;;;;222.32;204.20;;;28.70;99.90;;;;;;5053702;28;20037;-66
2024/01/27 12:32:54;;;;;;;260.42;237.02;;;28.70;99.90;;;;;;5053653;28;20048;-65
2024/01/27 12:35:20;;;;;;;284.02;258.45;;;28.80;99.90;;;;;;5053805;28;20025;-65
2024/01/27 12:37:49;;;;;;;253.60;232.52;;;28.80;99.90;;;;;;5053014;28;20021;-67
2024/01/27 12:40:19;;;;;;;230.45;210.85;;;28.70;99.90;;;;;;5053701;28;20029;-66
2024/01/27 12:42:45;;;;;;;232.80;213.40;;;28.70;99.90;;;;;;5053679;28;20029;-65
2024/01/27 12:45:12;;;;;;;243.05;222.50;;;28.60;99.90;;;;;;5053703;28;20029;-66
2024/01/27 12:47:39;;;;;;;226.48;208.05;;;28.60;99.90;;;;;;5053521;28;20025;-66
2024/01/27 12:50:07;;;;;;;254.80;233.40;;;28.60;99.90;;;;;;5053211;28;20428;-65
2024/01/27 12:52:34;;;;;;;265.13;241.00;;;28.60;99.90;;;;;;5053574;28;20083;-66
2024/01/27 12:55:00;;;;;;;279.67;255.48;;;28.60;99.90;;;;;;5053590;28;20032;-66
2024/01/27 12:57:27;;;;;;;296.60;271.17;;;28.60;99.90;;;;;;5053709;28;20032;-66
2024/01/27 12:59:53;;;;;;;280.83;256.52;;;28.60;99.90;;;;;;5053326;28;20036;-66
2024/01/27 13:02:19;;;;;;;229.20;210.60;;;28.60;99.90;;;;;;5053388;28;20021;-65
2024/01/27 13:04:46;;;;;;;247.40;226.30;;;28.60;99.90;;;;;;5053258;28;20032;-67
2024/01/27 13:07:14;;;;;;;224.48;205.57;;;28.60;99.90;;;;;;5052956;28;20473;-68
2024/01/27 13:09:40;;;;;;;263.48;240.27;;;28.60;99.90;;;;;;5053124;28;20037;-66
2024/01/27 13:12:07;;;;;;;301.02;274.55;;;28.60;99.90;;;;;;5052999;28;20126;-67